createdAt,value
2022-12-05T00:01:35.983Z,6.20
2022-12-05T00:04:06.383Z,6.20
2022-12-05T00:06:35.406Z,6.00
2022-12-05T00:09:04.000Z,6.10
2022-12-05T00:11:34.445Z,6.20
2022-12-05T00:14:03.309Z,6.20
2022-12-05T00:16:33.223Z,6.10
2022-12-05T00:19:01.250Z,6.10
2022-12-05T00:21:32.022Z,6.10
2022-12-05T00:24:01.249Z,6.10
2022-12-05T00:26:30.258Z,6.10
2022-12-05T00:28:58.286Z,6.10
2022-12-05T00:31:27.460Z,6.20
2022-12-05T00:33:55.961Z,6.20
2022-12-05T00:36:28.811Z,6.10
2022-12-05T00:38:58.738Z,6.00
2022-12-05T00:41:28.267Z,5.90
2022-12-05T00:43:58.129Z,6.00
2022-12-05T00:46:28.291Z,5.90
2022-12-05T00:48:57.513Z,5.80
2022-12-05T00:51:31.231Z,5.80
2022-12-05T00:54:04.147Z,5.70
2022-12-05T00:56:32.597Z,5.70
2022-12-05T00:59:01.604Z,5.70
2022-12-05T01:01:33.721Z,5.90
2022-12-05T01:04:05.157Z,5.80
2022-12-05T01:06:32.734Z,5.90
2022-12-05T01:09:00.317Z,5.90
2022-12-05T01:11:28.100Z,5.90
2022-12-05T01:13:56.683Z,5.80
2022-12-05T01:16:28.130Z,5.70
2022-12-05T01:18:57.185Z,5.80
2022-12-05T01:21:25.803Z,5.80
2022-12-05T01:23:53.468Z,5.80
2022-12-05T01:26:22.383Z,5.70
2022-12-05T01:28:51.063Z,5.70
2022-12-05T01:31:25.999Z,5.70
2022-12-05T01:33:55.588Z,5.80
2022-12-05T01:36:24.145Z,5.80
2022-12-05T01:38:52.295Z,5.70
2022-12-05T01:41:23.479Z,5.90
2022-12-05T01:43:53.960Z,5.90
2022-12-05T01:46:21.623Z,5.70
2022-12-05T01:48:50.308Z,5.70
2022-12-05T01:51:18.688Z,5.80
2022-12-05T01:53:46.210Z,5.90
2022-12-05T01:56:14.324Z,6.00
2022-12-05T01:58:43.411Z,6.00
2022-12-05T02:01:13.896Z,5.90
2022-12-05T02:03:42.678Z,6.00
2022-12-05T02:06:10.700Z,5.90
2022-12-05T02:08:39.385Z,5.90
2022-12-05T02:11:08.899Z,6.00
2022-12-05T02:14:13.262Z,5.90
2022-12-05T02:17:19.603Z,6.00
2022-12-05T02:19:48.500Z,5.90
2022-12-05T02:22:39.568Z,5.90
2022-12-05T02:25:10.530Z,6.00
2022-12-05T02:27:43.627Z,6.00
2022-12-05T02:30:20.710Z,6.00
2022-12-05T02:32:51.612Z,6.10
2022-12-05T02:35:22.034Z,6.10
2022-12-05T02:38:20.133Z,6.10
2022-12-05T02:41:01.280Z,6.10
2022-12-05T02:43:38.611Z,6.30
2022-12-05T02:46:12.677Z,6.30
2022-12-05T02:48:42.688Z,6.30
2022-12-05T02:51:13.376Z,6.20
2022-12-05T02:53:42.295Z,6.20
2022-12-05T02:56:10.601Z,6.20
2022-12-05T02:58:44.373Z,6.20
2022-12-05T03:01:12.548Z,6.20
2022-12-05T03:03:40.350Z,6.20
2022-12-05T03:06:08.305Z,6.20
2022-12-05T03:08:45.628Z,6.20
2022-12-05T03:11:13.740Z,6.10
2022-12-05T03:14:03.137Z,6.20
2022-12-05T03:16:35.978Z,6.10
2022-12-05T03:19:25.800Z,6.10
2022-12-05T03:22:01.022Z,6.10
2022-12-05T03:24:29.119Z,6.30
2022-12-05T03:27:13.586Z,6.30
2022-12-05T03:29:53.259Z,6.30
2022-12-05T03:32:59.763Z,6.30
2022-12-05T03:35:31.425Z,6.30
2022-12-05T03:38:03.939Z,6.30
2022-12-05T03:40:39.185Z,6.30
2022-12-05T03:43:20.312Z,6.20
2022-12-05T03:45:53.474Z,6.30
2022-12-05T03:48:33.669Z,6.30
2022-12-05T03:51:03.938Z,6.20
2022-12-05T03:54:05.542Z,6.20
2022-12-05T03:56:51.225Z,6.20
2022-12-05T03:59:52.619Z,6.20
2022-12-05T04:02:30.661Z,6.20
2022-12-05T04:05:10.074Z,6.20
2022-12-05T04:07:39.878Z,6.20
2022-12-05T04:10:14.220Z,6.20
2022-12-05T04:12:43.804Z,6.10
2022-12-05T04:15:18.529Z,6.20
2022-12-05T04:17:59.027Z,6.30
2022-12-05T04:20:57.669Z,6.30
2022-12-05T04:23:26.051Z,6.40
2022-12-05T04:26:22.924Z,6.30
2022-12-05T04:29:00.656Z,6.30
2022-12-05T04:31:41.511Z,6.30
2022-12-05T04:34:13.894Z,6.40
2022-12-05T04:36:43.913Z,6.30
2022-12-05T04:39:18.224Z,6.30
2022-12-05T04:41:55.031Z,6.20
2022-12-05T04:44:27.080Z,6.20
2022-12-05T04:46:57.006Z,6.20
2022-12-05T04:49:27.565Z,6.20
2022-12-05T04:52:00.346Z,6.20
2022-12-05T04:54:39.694Z,6.20
2022-12-05T04:57:23.378Z,6.20
2022-12-05T04:59:51.061Z,6.10
2022-12-05T05:02:28.040Z,6.20
2022-12-05T05:04:58.025Z,6.20
2022-12-05T05:07:25.501Z,6.10
2022-12-05T05:09:53.099Z,6.20
2022-12-05T05:12:20.515Z,6.00
2022-12-05T05:14:48.092Z,5.90
2022-12-05T05:17:15.630Z,5.80
2022-12-05T05:19:43.094Z,5.90
2022-12-05T05:22:10.539Z,5.80
2022-12-05T05:24:38.102Z,5.80
2022-12-05T05:27:05.540Z,5.70
2022-12-05T05:29:33.022Z,5.70
2022-12-05T05:32:00.461Z,5.70
2022-12-05T05:34:28.803Z,5.70
2022-12-05T05:36:56.277Z,5.50
2022-12-05T05:39:23.765Z,5.60
2022-12-05T05:41:51.203Z,5.60
2022-12-05T05:44:18.788Z,5.50
2022-12-05T05:46:46.335Z,5.40
2022-12-05T05:49:13.880Z,5.30
2022-12-05T05:51:41.362Z,5.20
2022-12-05T05:54:10.207Z,5.20
2022-12-05T05:56:39.577Z,5.20
2022-12-05T05:59:07.003Z,5.20
2022-12-05T06:01:34.527Z,5.10
2022-12-05T06:04:02.116Z,5.20
2022-12-05T06:06:29.687Z,5.20
2022-12-05T06:08:57.244Z,5.10
2022-12-05T06:11:27.390Z,5.10
2022-12-05T06:13:56.168Z,5.20
2022-12-05T06:16:24.148Z,5.20
2022-12-05T06:18:53.094Z,5.20
2022-12-05T06:21:21.418Z,5.20
2022-12-05T06:23:49.901Z,5.10
2022-12-05T06:26:20.196Z,5.10
2022-12-05T06:28:47.731Z,5.00
2022-12-05T06:31:19.257Z,4.90
2022-12-05T06:33:47.074Z,5.00
2022-12-05T06:36:20.329Z,4.80
2022-12-05T06:38:48.243Z,4.80
2022-12-05T06:41:18.549Z,4.80
2022-12-05T06:43:46.545Z,4.90
2022-12-05T06:46:15.388Z,4.90
2022-12-05T06:48:43.074Z,4.80
2022-12-05T06:51:12.862Z,4.90
2022-12-05T06:53:40.934Z,4.80
2022-12-05T06:56:12.209Z,4.80
2022-12-05T06:58:44.412Z,4.70
2022-12-05T07:01:35.807Z,4.70
2022-12-05T07:04:04.403Z,4.70
2022-12-05T07:06:32.872Z,4.70
2022-12-05T07:09:00.387Z,4.60
2022-12-05T07:11:28.042Z,4.60
2022-12-05T07:13:55.642Z,4.60
2022-12-05T07:16:23.526Z,4.60
2022-12-05T07:18:51.328Z,4.60
2022-12-05T07:21:21.143Z,4.70
2022-12-05T07:23:52.298Z,4.60
2022-12-05T07:26:23.747Z,4.70
2022-12-05T07:28:52.433Z,4.80
2022-12-05T07:31:22.784Z,4.80
2022-12-05T07:33:50.617Z,4.80
2022-12-05T07:36:22.792Z,4.90
2022-12-05T07:38:55.967Z,4.80
2022-12-05T07:41:26.877Z,4.70
2022-12-05T07:43:56.240Z,4.80
2022-12-05T07:46:24.471Z,4.70
2022-12-05T07:48:52.250Z,4.70
2022-12-05T07:51:20.026Z,4.70
2022-12-05T07:53:48.028Z,4.70
2022-12-05T07:56:17.917Z,4.60
2022-12-05T07:58:47.547Z,4.60
2022-12-05T08:01:21.443Z,4.50
2022-12-05T08:03:49.834Z,4.50
2022-12-05T08:06:19.435Z,4.50
2022-12-05T08:08:50.137Z,4.50
2022-12-05T08:11:20.978Z,4.40
2022-12-05T08:13:49.823Z,4.40
2022-12-05T08:16:29.011Z,4.40
2022-12-05T08:19:04.324Z,4.40
2022-12-05T08:21:32.653Z,4.50
2022-12-05T08:24:00.277Z,4.50
2022-12-05T08:26:30.401Z,4.40
2022-12-05T08:29:13.057Z,4.50
2022-12-05T08:31:44.296Z,4.60
2022-12-05T08:34:13.209Z,4.50
2022-12-05T08:36:41.483Z,4.50
2022-12-05T08:39:14.292Z,4.60
2022-12-05T08:41:43.282Z,4.50
2022-12-05T08:44:11.229Z,4.60
2022-12-05T08:46:39.341Z,4.60
2022-12-05T08:49:07.122Z,4.50
2022-12-05T08:51:35.051Z,4.50
2022-12-05T08:54:03.687Z,4.60
2022-12-05T08:56:33.100Z,4.70
2022-12-05T08:59:05.648Z,4.70
2022-12-05T09:01:37.166Z,4.80
2022-12-05T09:04:06.181Z,4.90
2022-12-05T09:06:34.664Z,5.00
2022-12-05T09:09:07.748Z,5.00
2022-12-05T09:11:38.083Z,5.00
2022-12-05T09:14:05.640Z,5.00
2022-12-05T09:16:38.619Z,5.10
2022-12-05T09:19:27.775Z,5.10
2022-12-05T09:21:55.839Z,5.10
2022-12-05T09:24:23.955Z,5.20
2022-12-05T09:26:52.104Z,5.20
2022-12-05T09:29:19.711Z,5.20
2022-12-05T09:31:48.830Z,5.00
2022-12-05T09:34:18.674Z,4.90
2022-12-05T09:36:51.352Z,5.00
2022-12-05T09:39:19.016Z,5.00
2022-12-05T09:42:10.665Z,4.90
2022-12-05T09:45:17.628Z,4.90
2022-12-05T09:48:00.810Z,4.90
2022-12-05T09:50:41.813Z,4.80
2022-12-05T09:53:09.485Z,4.80
2022-12-05T09:56:03.727Z,4.80
2022-12-05T09:58:42.424Z,4.90
2022-12-05T10:01:25.086Z,5.00
2022-12-05T10:04:07.911Z,5.00
2022-12-05T10:06:53.560Z,5.00
2022-12-05T10:09:30.007Z,5.10
2022-12-05T10:12:16.266Z,5.10
2022-12-05T10:15:12.644Z,5.10
2022-12-05T10:17:45.925Z,5.20
2022-12-05T10:20:22.268Z,5.30
2022-12-05T10:23:00.696Z,5.30
2022-12-05T10:25:28.789Z,5.40
2022-12-05T10:28:01.014Z,5.50
2022-12-05T10:30:32.335Z,5.60
2022-12-05T10:33:09.688Z,5.50
2022-12-05T10:35:39.907Z,5.60
2022-12-05T10:38:25.865Z,5.60
2022-12-05T10:40:58.313Z,5.60
2022-12-05T10:43:28.967Z,5.60
2022-12-05T10:45:57.571Z,5.60
2022-12-05T10:48:25.850Z,5.60
2022-12-05T10:50:56.425Z,5.70
2022-12-05T10:53:49.737Z,5.60
2022-12-05T10:56:43.308Z,5.70
2022-12-05T10:59:25.800Z,5.70
2022-12-05T11:01:57.023Z,5.80
2022-12-05T11:04:32.209Z,5.80
2022-12-05T11:07:05.339Z,5.90
2022-12-05T11:09:37.848Z,5.80
2022-12-05T11:12:23.658Z,5.90
2022-12-05T11:15:01.992Z,5.80
2022-12-05T11:17:38.749Z,5.80
2022-12-05T11:20:18.387Z,5.80
2022-12-05T11:22:48.943Z,5.80
2022-12-05T11:25:28.760Z,5.80
2022-12-05T11:28:19.461Z,5.90
2022-12-05T11:30:57.536Z,6.00
2022-12-05T11:33:27.894Z,5.80
2022-12-05T11:36:16.902Z,5.80
2022-12-05T11:38:44.889Z,5.60
2022-12-05T11:41:37.049Z,5.60
2022-12-05T11:44:31.009Z,5.50
2022-12-05T11:47:19.401Z,5.60
2022-12-05T11:50:05.040Z,5.60
2022-12-05T11:52:51.170Z,5.60
2022-12-05T11:55:38.434Z,5.70
2022-12-05T11:58:42.061Z,5.60
2022-12-05T12:01:29.750Z,5.50
2022-12-05T12:04:31.314Z,5.60
2022-12-05T12:07:04.634Z,5.50
2022-12-05T12:09:34.916Z,5.60
2022-12-05T12:12:33.586Z,5.70
2022-12-05T12:15:22.735Z,5.70
2022-12-05T12:18:02.519Z,5.80
2022-12-05T12:20:39.238Z,5.80
2022-12-05T12:23:44.584Z,5.80
2022-12-05T12:26:20.514Z,5.80
2022-12-05T12:28:57.076Z,5.90
2022-12-05T12:31:50.625Z,5.80
2022-12-05T12:34:30.014Z,6.00
2022-12-05T12:38:11.502Z,6.00
2022-12-05T12:40:41.892Z,6.00
2022-12-05T12:43:52.154Z,5.90
2022-12-05T12:46:37.659Z,6.00
2022-12-05T12:49:23.768Z,5.90
2022-12-05T12:51:59.575Z,5.80
2022-12-05T12:55:03.997Z,5.80
2022-12-05T12:57:38.307Z,5.70
2022-12-05T13:00:36.435Z,5.70
2022-12-05T13:03:17.234Z,5.60
2022-12-05T13:05:50.325Z,5.70
2022-12-05T13:08:28.852Z,5.50
2022-12-05T13:10:59.809Z,5.50
2022-12-05T13:13:40.662Z,5.40
2022-12-05T13:16:09.779Z,5.40
2022-12-05T13:18:37.411Z,5.40
2022-12-05T13:21:08.136Z,5.40
2022-12-05T13:23:50.052Z,5.50
2022-12-05T13:26:18.280Z,5.50
2022-12-05T13:28:58.212Z,5.50
2022-12-05T13:31:43.546Z,5.50
2022-12-05T13:34:34.281Z,5.60
2022-12-05T13:37:30.231Z,5.70
2022-12-05T13:40:17.405Z,5.80
2022-12-05T13:42:44.981Z,5.80
2022-12-05T13:45:18.740Z,5.90
2022-12-05T13:47:59.253Z,5.90
2022-12-05T13:50:41.412Z,5.90
2022-12-05T13:53:43.929Z,5.90
2022-12-05T13:56:14.579Z,5.90
2022-12-05T13:58:49.984Z,6.00
2022-12-05T14:01:26.924Z,5.90
2022-12-05T14:04:00.645Z,5.90
2022-12-05T14:06:40.118Z,5.90
2022-12-05T14:09:20.242Z,5.90
2022-12-05T14:12:12.590Z,5.80
2022-12-05T14:15:27.355Z,5.80
2022-12-05T14:18:03.676Z,5.70
2022-12-05T14:20:48.994Z,5.70
2022-12-05T14:23:44.403Z,5.70
2022-12-05T14:26:23.114Z,5.70
2022-12-05T14:29:03.735Z,5.70
2022-12-05T14:31:40.526Z,5.70
2022-12-05T14:34:26.424Z,5.70
2022-12-05T14:37:03.071Z,5.70
2022-12-05T14:39:47.833Z,5.70
2022-12-05T14:42:23.154Z,5.70
2022-12-05T14:44:53.757Z,5.80
2022-12-05T14:47:25.386Z,5.70
2022-12-05T14:49:54.271Z,5.80
2022-12-05T14:52:25.119Z,5.80
2022-12-05T14:54:55.328Z,5.80
2022-12-05T14:57:23.172Z,5.80
2022-12-05T14:59:51.452Z,5.70
2022-12-05T15:02:32.687Z,5.70
2022-12-05T15:05:02.735Z,5.70
2022-12-05T15:07:38.735Z,5.80
2022-12-05T15:10:29.540Z,5.70
2022-12-05T15:13:11.470Z,5.60
2022-12-05T15:16:13.436Z,5.60
2022-12-05T15:18:47.880Z,5.50
2022-12-05T15:21:36.528Z,5.50
2022-12-05T15:24:17.494Z,5.50
2022-12-05T15:26:49.165Z,5.60
2022-12-05T15:29:20.637Z,5.60
2022-12-05T15:31:52.913Z,5.50
2022-12-05T15:35:01.788Z,5.50
2022-12-05T15:37:37.436Z,5.50
2022-12-05T15:40:07.862Z,5.50
2022-12-05T15:42:43.637Z,5.50
2022-12-05T15:45:16.723Z,5.40
2022-12-05T15:47:50.087Z,5.30
2022-12-05T15:50:38.328Z,5.40
2022-12-05T15:53:27.529Z,5.40
2022-12-05T15:56:03.743Z,5.40
2022-12-05T15:59:02.627Z,5.30
2022-12-05T16:01:30.376Z,5.30
2022-12-05T16:04:29.540Z,5.30
2022-12-05T16:07:00.857Z,5.30
2022-12-05T16:09:32.436Z,5.30
2022-12-05T16:12:03.464Z,5.30
2022-12-05T16:17:31.223Z,5.20
2022-12-05T16:20:22.127Z,5.20
2022-12-05T16:22:55.299Z,5.30
2022-12-05T16:25:29.669Z,5.30
2022-12-05T16:28:23.837Z,5.20
2022-12-05T16:31:03.446Z,5.20
2022-12-05T16:33:31.583Z,5.20
2022-12-05T16:36:12.692Z,5.20
2022-12-05T16:38:45.168Z,5.10
2022-12-05T16:41:16.430Z,5.10
2022-12-05T16:43:46.008Z,5.10
2022-12-05T16:46:13.637Z,5.10
2022-12-05T16:48:47.642Z,5.00
2022-12-05T16:51:28.853Z,5.10
2022-12-05T16:53:57.324Z,5.10
2022-12-05T16:56:28.089Z,5.10
2022-12-05T16:58:56.756Z,5.10
2022-12-05T17:01:26.627Z,5.10
2022-12-05T17:03:56.001Z,5.00
2022-12-05T17:06:25.102Z,5.10
2022-12-05T17:08:54.613Z,4.90
2022-12-05T17:11:35.235Z,5.00
2022-12-05T17:14:03.784Z,5.00
2022-12-05T17:16:31.421Z,5.00
2022-12-05T17:18:59.166Z,5.00
2022-12-05T17:21:31.291Z,4.90
2022-12-05T17:23:59.543Z,5.00
2022-12-05T17:26:27.495Z,5.00
2022-12-05T17:28:55.368Z,5.10
2022-12-05T17:31:25.288Z,5.00
2022-12-05T17:33:54.957Z,4.90
2022-12-05T17:36:23.101Z,5.00
2022-12-05T17:38:51.273Z,5.10
2022-12-05T17:41:23.169Z,5.10
2022-12-05T17:43:51.760Z,5.00
2022-12-05T17:46:22.038Z,5.00
2022-12-05T17:48:51.532Z,5.00
2022-12-05T17:51:20.409Z,4.90
2022-12-05T17:53:48.029Z,5.10
2022-12-05T17:56:15.998Z,5.00
2022-12-05T17:58:43.725Z,4.90
2022-12-05T18:01:20.226Z,5.00
2022-12-05T18:03:48.978Z,5.00
2022-12-05T18:06:17.565Z,5.00
2022-12-05T18:08:45.512Z,5.00
2022-12-05T18:11:14.373Z,5.10
2022-12-05T18:13:42.066Z,5.10
2022-12-05T18:16:09.803Z,5.00
2022-12-05T18:18:37.821Z,5.10
2022-12-05T18:21:09.202Z,5.00
2022-12-05T18:23:37.887Z,5.10
2022-12-05T18:26:07.467Z,5.00
2022-12-05T18:28:39.903Z,4.90
2022-12-05T18:31:26.153Z,4.90
2022-12-05T18:33:53.827Z,4.90
2022-12-05T18:36:21.690Z,4.90
2022-12-05T18:38:52.221Z,4.80
2022-12-05T18:41:20.372Z,4.80
2022-12-05T18:43:47.822Z,4.90
2022-12-05T18:46:15.480Z,4.90
2022-12-05T18:48:47.174Z,4.90
2022-12-05T18:51:18.989Z,4.90
2022-12-05T18:53:52.685Z,4.80
2022-12-05T18:56:30.601Z,4.80
2022-12-05T18:59:02.723Z,4.80
2022-12-05T19:01:31.884Z,4.80
2022-12-05T19:04:01.228Z,4.80
2022-12-05T19:06:32.142Z,4.80
2022-12-05T19:09:02.583Z,4.80
2022-12-05T19:11:30.171Z,4.80
2022-12-05T19:13:59.695Z,4.70
2022-12-05T19:16:30.020Z,4.70
2022-12-05T19:19:01.055Z,4.70
2022-12-05T19:21:30.939Z,4.70
2022-12-05T19:23:58.996Z,4.70
2022-12-05T19:26:26.958Z,4.60
2022-12-05T19:28:55.187Z,4.60
2022-12-05T19:31:24.733Z,4.70
2022-12-05T19:33:55.000Z,4.70
2022-12-05T19:36:25.207Z,4.70
2022-12-05T19:38:54.473Z,4.50
2022-12-05T19:41:27.170Z,4.60
2022-12-05T19:43:55.373Z,4.50
2022-12-05T19:46:29.805Z,4.60
2022-12-05T19:48:59.263Z,4.50
2022-12-05T19:51:27.239Z,4.40
2022-12-05T19:53:54.956Z,4.50
2022-12-05T19:56:24.777Z,4.50
2022-12-05T19:58:53.845Z,4.40
2022-12-05T20:01:24.676Z,4.50
2022-12-05T20:04:04.745Z,4.40
2022-12-05T20:06:35.333Z,4.40
2022-12-05T20:09:05.329Z,4.50
2022-12-05T20:11:37.823Z,4.50
2022-12-05T20:14:05.467Z,4.50
2022-12-05T20:16:33.882Z,4.50
2022-12-05T20:19:01.650Z,4.50
2022-12-05T20:21:31.481Z,4.40
2022-12-05T20:24:00.909Z,4.50
2022-12-05T20:26:31.582Z,4.60
2022-12-05T20:29:00.503Z,4.60
2022-12-05T20:31:33.905Z,4.60
2022-12-05T20:34:01.621Z,4.70
2022-12-05T20:36:32.403Z,4.60
2022-12-05T20:39:00.888Z,4.80
2022-12-05T20:41:29.085Z,4.80
2022-12-05T20:43:58.997Z,4.80
2022-12-05T20:46:28.204Z,4.80
2022-12-05T20:48:56.714Z,4.70
2022-12-05T20:51:26.835Z,4.60
2022-12-05T20:53:54.530Z,4.70
2022-12-05T20:56:28.301Z,4.70
2022-12-05T20:58:58.322Z,4.70
2022-12-05T21:01:28.198Z,4.60
2022-12-05T21:03:56.223Z,4.70
2022-12-05T21:06:28.102Z,4.50
2022-12-05T21:08:56.402Z,4.60
2022-12-05T21:11:25.669Z,4.60
2022-12-05T21:13:56.466Z,4.40
2022-12-05T21:16:24.632Z,4.40
2022-12-05T21:18:52.987Z,4.30
2022-12-05T21:21:25.793Z,4.40
2022-12-05T21:23:56.482Z,4.40
2022-12-05T21:26:25.802Z,4.40
2022-12-05T21:28:53.696Z,4.50
2022-12-05T21:31:24.739Z,4.40
2022-12-05T21:33:58.363Z,4.50
2022-12-05T21:36:27.304Z,4.50
2022-12-05T21:38:56.516Z,4.40
2022-12-05T21:41:27.672Z,4.40
2022-12-05T21:43:56.038Z,4.40
2022-12-05T21:46:25.062Z,4.40
2022-12-05T21:48:52.911Z,4.50
2022-12-05T21:51:21.048Z,4.40
2022-12-05T21:53:49.023Z,4.30
2022-12-05T21:56:18.688Z,4.40
2022-12-05T21:58:47.330Z,4.30
2022-12-05T22:01:23.656Z,4.30
2022-12-05T22:03:59.324Z,4.30
2022-12-05T22:06:27.441Z,4.20
2022-12-05T22:08:55.510Z,4.30
2022-12-05T22:11:24.240Z,4.20
2022-12-05T22:13:52.538Z,4.30
2022-12-05T22:16:21.029Z,4.30
2022-12-05T22:18:48.742Z,4.30
2022-12-05T22:21:20.880Z,4.30
2022-12-05T22:23:49.082Z,4.40
2022-12-05T22:26:21.960Z,4.50
2022-12-05T22:28:53.900Z,4.40
2022-12-05T22:31:22.926Z,4.40
2022-12-05T22:33:50.856Z,4.50
2022-12-05T22:36:19.969Z,4.60
2022-12-05T22:38:48.113Z,4.50
2022-12-05T22:41:19.575Z,4.60
2022-12-05T22:43:48.852Z,4.60
2022-12-05T22:46:18.927Z,4.60
2022-12-05T22:48:47.965Z,4.70
2022-12-05T22:51:16.851Z,4.80
2022-12-05T22:53:44.933Z,4.70
2022-12-05T22:56:18.023Z,4.70
2022-12-05T22:58:46.637Z,4.80
2022-12-05T23:01:14.163Z,4.80
2022-12-05T23:03:43.023Z,4.70
2022-12-05T23:06:12.270Z,4.80
2022-12-05T23:08:41.477Z,4.80
2022-12-05T23:11:09.671Z,4.70
2022-12-05T23:13:38.133Z,4.80
2022-12-05T23:16:10.517Z,4.80
2022-12-05T23:18:47.845Z,4.70
2022-12-05T23:21:24.838Z,4.70
2022-12-05T23:23:57.869Z,4.60
2022-12-05T23:26:28.046Z,4.70
2022-12-05T23:28:55.804Z,4.70
2022-12-05T23:31:23.687Z,4.60
2022-12-05T23:33:53.133Z,4.70
2022-12-05T23:36:20.966Z,4.70
2022-12-05T23:38:48.726Z,4.70
2022-12-05T23:41:21.533Z,4.70
2022-12-05T23:43:50.734Z,4.80
2022-12-05T23:46:21.375Z,4.70
2022-12-05T23:48:49.824Z,4.80
2022-12-05T23:51:29.234Z,4.80
2022-12-05T23:53:59.313Z,4.80
2022-12-05T23:56:29.973Z,4.90
2022-12-05T23:58:58.983Z,5.00
